Airfield :
LOGIN :

Register | Disclaimer

   EN    FR    IT 

 










Legend :    VFR   Marginal VFR   IFR   Intensive IFR   Very Intensive IFR
Visi :
Ceiling :
>= 8 km
>= 3000ft
5 to 8 km
1000 to 3000 ft
1500m to 5 km
500 to 1000 ft
800 to 1500m
200 to 500 ft
< 800m
< 200 ft
Symbols :   Thunderstorms  Fog  Heavy snow  Heavy precipitations  Wind > 20 kt
SIGMETs :     Misc.  Thunderstorms  Icing  Turbulence  Mountain Waves  Volcanic Ashes







- Airport Elevation : 117 ft
- IATA code : NWI
- Download approach charts


EGSH - Norwich

CURRENT METAR :
  • 150950Z 35008KT 310V020 9999 VCSH FEW008 SCT023 05/03 Q0993 NOSIG

EXPIRED METARs :
  • 150850Z 34007KT 310V020 9999 VCSH SCT008 BKN013 05/04 Q0991 TEMPO SCT013 BKN018
  • 150820Z 31005KT 280V340 9999 VCSH FEW008 SCT013 BKN018 05/04 Q0990 NOSIG
  • 150750Z 30009KT 270V330 9999 VCSH SCT010 BKN014 04/04 Q0990 RERA TEMPO SHRA
  • 150720Z 28011KT 7000 RA SCT005 BKN009 03/03 Q0989

TAF TAF EGSH
Valid from the 15 at 09:00 until the 15 at 18:00 UTC


150802Z 1509/1518 34010KT 9999 SCT020
TEMPO 1509/1517 7000 SHRA BKN010
PROB30
TEMPO 1509/1518 4000 +SHRA BKN005
ATIS : +44 1603 420 640
No reported NOTAMs for that airfield.



MET'MAP, your aeronautical weather chart ! - Copyright ORBIFLY December 2007 - Disclaimer

ORBIFLY MET'MAP TEAM :

Programming & Development : Alexandra Zaïnal
Concept & Development : Baudouin d'Aumeries
Co-Development & Prog : Marc-Olivier Méhu
Technical & hardware support : Manuel Goepfert

Contact : metmap@orbifly.com




SOURCES & CREDITS :

   NOAA